sensor_id;sensor_type;location;lat;lon;timestamp;pressure;altitude;pressure_sealevel;temperature;humidity
81387;BME280;70842;50.744;7.114;2023-07-31T00:01:19;100763.00;;;19.66;62.48
81387;BME280;70842;50.744;7.114;2023-07-31T00:03:46;100769.56;;;19.63;62.01
81387;BME280;70842;50.744;7.114;2023-07-31T00:06:13;100766.78;;;19.34;63.20
81387;BME280;70842;50.744;7.114;2023-07-31T00:08:39;100754.28;;;19.41;62.66
81387;BME280;70842;50.744;7.114;2023-07-31T00:11:06;100762.34;;;19.64;62.65
81387;BME280;70842;50.744;7.114;2023-07-31T00:13:32;100756.63;;;19.44;63.13
81387;BME280;70842;50.744;7.114;2023-07-31T00:15:59;100763.59;;;19.76;62.14
81387;BME280;70842;50.744;7.114;2023-07-31T00:18:25;100758.69;;;19.94;61.68
81387;BME280;70842;50.744;7.114;2023-07-31T00:20:52;100761.88;;;19.97;61.33
81387;BME280;70842;50.744;7.114;2023-07-31T00:23:18;100759.34;;;19.59;62.60
81387;BME280;70842;50.744;7.114;2023-07-31T00:25:45;100768.78;;;19.77;62.28
81387;BME280;70842;50.744;7.114;2023-07-31T00:28:11;100770.47;;;19.78;62.35
81387;BME280;70842;50.744;7.114;2023-07-31T00:30:37;100769.31;;;19.73;62.54
81387;BME280;70842;50.744;7.114;2023-07-31T00:33:04;100766.84;;;19.86;62.53
81387;BME280;70842;50.744;7.114;2023-07-31T00:35:30;100755.75;;;19.89;62.40
81387;BME280;70842;50.744;7.114;2023-07-31T00:37:58;100757.03;;;19.78;62.63
81387;BME280;70842;50.744;7.114;2023-07-31T00:40:24;100759.94;;;19.69;62.81
81387;BME280;70842;50.744;7.114;2023-07-31T00:42:51;100764.91;;;19.57;63.05
81387;BME280;70842;50.744;7.114;2023-07-31T00:45:17;100772.00;;;19.19;64.66
81387;BME280;70842;50.744;7.114;2023-07-31T00:47:44;100778.53;;;19.25;64.93
81387;BME280;70842;50.744;7.114;2023-07-31T00:50:10;100772.81;;;19.36;64.37
81387;BME280;70842;50.744;7.114;2023-07-31T00:52:37;100774.53;;;19.52;63.90
81387;BME280;70842;50.744;7.114;2023-07-31T00:55:04;100775.66;;;19.34;64.82
81387;BME280;70842;50.744;7.114;2023-07-31T00:57:32;100779.72;;;19.22;65.35
81387;BME280;70842;50.744;7.114;2023-07-31T00:59:59;100774.06;;;19.48;64.58
81387;BME280;70842;50.744;7.114;2023-07-31T01:02:26;100772.78;;;19.28;65.25
81387;BME280;70842;50.744;7.114;2023-07-31T01:04:52;100765.13;;;19.48;64.50
81387;BME280;70842;50.744;7.114;2023-07-31T01:07:24;100767.84;;;19.48;64.58
81387;BME280;70842;50.744;7.114;2023-07-31T01:10:06;100764.41;;;19.54;64.49
81387;BME280;70842;50.744;7.114;2023-07-31T01:12:34;100765.69;;;19.43;65.08
81387;BME280;70842;50.744;7.114;2023-07-31T01:15:05;100756.50;;;19.37;65.15
81387;BME280;70842;50.744;7.114;2023-07-31T01:17:32;100757.81;;;19.41;65.08
81387;BME280;70842;50.744;7.114;2023-07-31T01:20:02;100756.13;;;19.63;64.50
81387;BME280;70842;50.744;7.114;2023-07-31T01:22:41;100751.34;;;19.20;66.85
81387;BME280;70842;50.744;7.114;2023-07-31T01:25:35;100746.78;;;19.28;66.62
81387;BME280;70842;50.744;7.114;2023-07-31T01:28:09;100758.22;;;19.00;67.58
81387;BME280;70842;50.744;7.114;2023-07-31T01:30:42;100757.69;;;18.96;69.19
81387;BME280;70842;50.744;7.114;2023-07-31T01:33:10;100762.06;;;18.58;71.12
81387;BME280;70842;50.744;7.114;2023-07-31T01:35:37;100765.22;;;18.62;72.03
81387;BME280;70842;50.744;7.114;2023-07-31T01:38:04;100753.91;;;18.44;72.85
81387;BME280;70842;50.744;7.114;2023-07-31T01:40:31;100748.72;;;18.81;71.55
81387;BME280;70842;50.744;7.114;2023-07-31T01:42:57;100743.44;;;18.65;71.62
81387;BME280;70842;50.744;7.114;2023-07-31T01:45:24;100738.75;;;18.59;72.56
81387;BME280;70842;50.744;7.114;2023-07-31T01:47:50;100743.22;;;18.75;71.57
81387;BME280;70842;50.744;7.114;2023-07-31T01:50:17;100745.59;;;18.69;71.75
81387;BME280;70842;50.744;7.114;2023-07-31T01:52:44;100740.03;;;18.71;72.08
81387;BME280;70842;50.744;7.114;2023-07-31T01:55:10;100742.72;;;18.71;71.52
81387;BME280;70842;50.744;7.114;2023-07-31T01:57:37;100742.25;;;18.98;70.28
81387;BME280;70842;50.744;7.114;2023-07-31T02:00:04;100740.59;;;18.58;71.26
81387;BME280;70842;50.744;7.114;2023-07-31T02:02:31;100736.59;;;18.93;70.96
81387;BME280;70842;50.744;7.114;2023-07-31T02:04:58;100739.03;;;18.72;71.24
81387;BME280;70842;50.744;7.114;2023-07-31T02:07:24;100735.75;;;18.54;71.39
81387;BME280;70842;50.744;7.114;2023-07-31T02:09:50;100730.63;;;18.83;70.53
81387;BME280;70842;50.744;7.114;2023-07-31T02:12:17;100715.81;;;18.87;70.32
81387;BME280;70842;50.744;7.114;2023-07-31T02:14:43;100721.78;;;18.97;69.57
81387;BME280;70842;50.744;7.114;2023-07-31T02:17:10;100723.00;;;19.17;68.92
81387;BME280;70842;50.744;7.114;2023-07-31T02:19:36;100710.94;;;19.13;69.24
81387;BME280;70842;50.744;7.114;2023-07-31T02:22:02;100714.03;;;19.02;68.97
81387;BME280;70842;50.744;7.114;2023-07-31T02:24:29;100712.97;;;19.11;68.67
81387;BME280;70842;50.744;7.114;2023-07-31T02:26:55;100713.16;;;19.10;68.49
81387;BME280;70842;50.744;7.114;2023-07-31T02:29:22;100709.50;;;19.03;68.02
81387;BME280;70842;50.744;7.114;2023-07-31T02:31:48;100710.88;;;18.99;68.64
81387;BME280;70842;50.744;7.114;2023-07-31T02:34:15;100708.56;;;18.96;68.75
81387;BME280;70842;50.744;7.114;2023-07-31T02:36:42;100702.28;;;19.03;68.49
81387;BME280;70842;50.744;7.114;2023-07-31T02:39:08;100703.28;;;19.02;67.88
81387;BME280;70842;50.744;7.114;2023-07-31T02:41:35;100688.78;;;19.11;67.42
81387;BME280;70842;50.744;7.114;2023-07-31T02:44:01;100688.00;;;19.03;67.59
81387;BME280;70842;50.744;7.114;2023-07-31T02:46:28;100692.78;;;19.15;67.03
81387;BME280;70842;50.744;7.114;2023-07-31T02:48:54;100687.41;;;19.15;66.94
81387;BME280;70842;50.744;7.114;2023-07-31T02:51:21;100686.09;;;19.11;66.42
81387;BME280;70842;50.744;7.114;2023-07-31T02:53:47;100685.38;;;19.17;66.64
81387;BME280;70842;50.744;7.114;2023-07-31T02:56:14;100683.72;;;19.16;66.51
81387;BME280;70842;50.744;7.114;2023-07-31T02:58:40;100686.22;;;19.18;66.53
81387;BME280;70842;50.744;7.114;2023-07-31T03:01:07;100682.81;;;19.24;65.65
81387;BME280;70842;50.744;7.114;2023-07-31T03:03:33;100686.63;;;19.07;66.36
81387;BME280;70842;50.744;7.114;2023-07-31T03:06:00;100685.25;;;19.11;66.32
81387;BME280;70842;50.744;7.114;2023-07-31T03:08:26;100683.78;;;19.08;65.38
81387;BME280;70842;50.744;7.114;2023-07-31T03:10:53;100682.47;;;19.27;64.86
81387;BME280;70842;50.744;7.114;2023-07-31T03:13:19;100672.91;;;19.24;64.79
81387;BME280;70842;50.744;7.114;2023-07-31T03:15:45;100673.34;;;19.13;64.85
81387;BME280;70842;50.744;7.114;2023-07-31T03:18:13;100674.28;;;19.20;65.11
81387;BME280;70842;50.744;7.114;2023-07-31T03:20:43;100666.22;;;19.20;64.52
81387;BME280;70842;50.744;7.114;2023-07-31T03:23:10;100671.31;;;19.15;64.81
81387;BME280;70842;50.744;7.114;2023-07-31T03:25:37;100663.97;;;19.09;65.47
81387;BME280;70842;50.744;7.114;2023-07-31T03:28:03;100660.50;;;19.23;64.76
81387;BME280;70842;50.744;7.114;2023-07-31T03:30:30;100663.56;;;19.43;64.36
81387;BME280;70842;50.744;7.114;2023-07-31T03:32:56;100655.78;;;19.48;64.08
81387;BME280;70842;50.744;7.114;2023-07-31T03:35:23;100664.63;;;19.57;63.78
81387;BME280;70842;50.744;7.114;2023-07-31T03:37:49;100653.03;;;19.33;63.75
81387;BME280;70842;50.744;7.114;2023-07-31T03:40:16;100646.03;;;19.47;62.58
81387;BME280;70842;50.744;7.114;2023-07-31T03:42:42;100648.06;;;19.45;63.20
81387;BME280;70842;50.744;7.114;2023-07-31T03:45:09;100641.06;;;19.44;62.64
81387;BME280;70842;50.744;7.114;2023-07-31T03:47:35;100642.72;;;19.60;62.97
81387;BME280;70842;50.744;7.114;2023-07-31T03:50:02;100635.50;;;19.60;62.93
81387;BME280;70842;50.744;7.114;2023-07-31T03:52:28;100636.13;;;19.48;63.37
81387;BME280;70842;50.744;7.114;2023-07-31T03:54:54;100631.78;;;19.47;63.47
81387;BME280;70842;50.744;7.114;2023-07-31T03:57:21;100637.53;;;19.58;62.90
81387;BME280;70842;50.744;7.114;2023-07-31T03:59:47;100635.69;;;19.59;63.12
81387;BME280;70842;50.744;7.114;2023-07-31T04:02:14;100633.22;;;19.34;63.06
81387;BME280;70842;50.744;7.114;2023-07-31T04:04:40;100628.19;;;19.54;62.93
81387;BME280;70842;50.744;7.114;2023-07-31T04:07:06;100624.50;;;19.70;62.57
81387;BME280;70842;50.744;7.114;2023-07-31T04:09:33;100625.94;;;19.43;63.71
81387;BME280;70842;50.744;7.114;2023-07-31T04:11:59;100616.16;;;19.27;64.06
81387;BME280;70842;50.744;7.114;2023-07-31T04:14:26;100620.22;;;19.23;64.03
81387;BME280;70842;50.744;7.114;2023-07-31T04:16:52;100623.56;;;19.25;63.89
81387;BME280;70842;50.744;7.114;2023-07-31T04:19:18;100629.00;;;19.32;63.50
81387;BME280;70842;50.744;7.114;2023-07-31T04:21:45;100631.84;;;19.38;63.07
81387;BME280;70842;50.744;7.114;2023-07-31T04:24:11;100626.69;;;19.52;62.88
81387;BME280;70842;50.744;7.114;2023-07-31T04:26:38;100626.88;;;19.50;63.30
81387;BME280;70842;50.744;7.114;2023-07-31T04:29:05;100619.84;;;19.26;63.76
81387;BME280;70842;50.744;7.114;2023-07-31T04:31:31;100623.00;;;19.67;62.22
81387;BME280;70842;50.744;7.114;2023-07-31T04:33:58;100623.09;;;19.44;63.34
81387;BME280;70842;50.744;7.114;2023-07-31T04:36:24;100616.88;;;19.44;63.22
81387;BME280;70842;50.744;7.114;2023-07-31T04:38:51;100629.66;;;19.42;63.17
81387;BME280;70842;50.744;7.114;2023-07-31T04:41:17;100627.34;;;19.31;63.03
81387;BME280;70842;50.744;7.114;2023-07-31T04:43:43;100625.00;;;19.36;63.69
81387;BME280;70842;50.744;7.114;2023-07-31T04:46:10;100627.91;;;19.26;63.51
81387;BME280;70842;50.744;7.114;2023-07-31T04:48:36;100624.16;;;19.35;63.18
81387;BME280;70842;50.744;7.114;2023-07-31T04:51:03;100619.50;;;19.29;63.31
81387;BME280;70842;50.744;7.114;2023-07-31T04:53:29;100622.22;;;19.21;63.75
81387;BME280;70842;50.744;7.114;2023-07-31T04:55:56;100620.78;;;19.33;63.35
81387;BME280;70842;50.744;7.114;2023-07-31T04:58:22;100620.63;;;19.35;63.21
81387;BME280;70842;50.744;7.114;2023-07-31T05:00:48;100622.34;;;19.51;62.99
81387;BME280;70842;50.744;7.114;2023-07-31T05:03:15;100615.94;;;19.52;62.70
81387;BME280;70842;50.744;7.114;2023-07-31T05:05:41;100602.28;;;19.38;63.19
81387;BME280;70842;50.744;7.114;2023-07-31T05:08:08;100599.44;;;19.17;63.62
81387;BME280;70842;50.744;7.114;2023-07-31T05:10:34;100600.19;;;19.49;62.66
81387;BME280;70842;50.744;7.114;2023-07-31T05:13:01;100600.03;;;19.27;64.14
81387;BME280;70842;50.744;7.114;2023-07-31T05:15:28;100588.97;;;19.22;64.12
81387;BME280;70842;50.744;7.114;2023-07-31T05:17:54;100594.34;;;19.22;63.58
81387;BME280;70842;50.744;7.114;2023-07-31T05:20:21;100585.22;;;19.31;63.42
81387;BME280;70842;50.744;7.114;2023-07-31T05:22:50;100591.31;;;19.25;64.13
81387;BME280;70842;50.744;7.114;2023-07-31T05:25:17;100585.69;;;19.35;64.15
81387;BME280;70842;50.744;7.114;2023-07-31T05:27:43;100588.91;;;19.30;64.28
81387;BME280;70842;50.744;7.114;2023-07-31T05:30:10;100584.06;;;19.26;64.25
81387;BME280;70842;50.744;7.114;2023-07-31T05:32:36;100578.69;;;19.49;63.99
81387;BME280;70842;50.744;7.114;2023-07-31T05:35:03;100582.41;;;19.25;64.28
81387;BME280;70842;50.744;7.114;2023-07-31T05:37:29;100579.47;;;19.34;64.29
81387;BME280;70842;50.744;7.114;2023-07-31T05:39:56;100577.44;;;19.36;64.05
81387;BME280;70842;50.744;7.114;2023-07-31T05:42:22;100570.69;;;19.40;63.79
81387;BME280;70842;50.744;7.114;2023-07-31T05:44:49;100572.56;;;19.40;64.15
81387;BME280;70842;50.744;7.114;2023-07-31T05:47:15;100562.63;;;19.40;64.47
81387;BME280;70842;50.744;7.114;2023-07-31T05:49:42;100552.16;;;19.45;64.19
81387;BME280;70842;50.744;7.114;2023-07-31T05:52:08;100551.81;;;19.34;64.53
81387;BME280;70842;50.744;7.114;2023-07-31T05:54:35;100554.94;;;19.37;64.90
81387;BME280;70842;50.744;7.114;2023-07-31T05:57:01;100562.03;;;19.30;65.14
81387;BME280;70842;50.744;7.114;2023-07-31T05:59:27;100556.94;;;19.21;65.46
81387;BME280;70842;50.744;7.114;2023-07-31T06:01:54;100556.19;;;19.27;65.49
81387;BME280;70842;50.744;7.114;2023-07-31T06:04:20;100548.00;;;19.43;65.09
81387;BME280;70842;50.744;7.114;2023-07-31T06:06:51;100553.94;;;19.16;65.44
81387;BME280;70842;50.744;7.114;2023-07-31T06:09:17;100543.97;;;19.24;66.12
81387;BME280;70842;50.744;7.114;2023-07-31T06:11:44;100540.41;;;19.09;66.58
81387;BME280;70842;50.744;7.114;2023-07-31T06:14:10;100545.25;;;19.14;67.09
81387;BME280;70842;50.744;7.114;2023-07-31T06:16:36;100550.41;;;19.15;67.34
81387;BME280;70842;50.744;7.114;2023-07-31T06:19:03;100542.97;;;19.03;68.23
81387;BME280;70842;50.744;7.114;2023-07-31T06:21:30;100548.34;;;19.03;68.56
81387;BME280;70842;50.744;7.114;2023-07-31T06:23:57;100547.00;;;18.84;69.28
81387;BME280;70842;50.744;7.114;2023-07-31T06:26:23;100554.53;;;18.66;71.13
81387;BME280;70842;50.744;7.114;2023-07-31T06:28:50;100556.84;;;18.69;70.14
81387;BME280;70842;50.744;7.114;2023-07-31T06:31:17;100557.25;;;18.58;72.46
81387;BME280;70842;50.744;7.114;2023-07-31T06:33:46;100540.22;;;18.43;72.68
81387;BME280;70842;50.744;7.114;2023-07-31T06:36:13;100553.88;;;18.33;73.35
81387;BME280;70842;50.744;7.114;2023-07-31T06:38:39;100542.69;;;18.30;73.29
81387;BME280;70842;50.744;7.114;2023-07-31T06:41:06;100548.44;;;18.49;73.29
81387;BME280;70842;50.744;7.114;2023-07-31T06:43:32;100540.34;;;18.27;73.57
81387;BME280;70842;50.744;7.114;2023-07-31T06:46:04;100534.03;;;18.42;72.78
81387;BME280;70842;50.744;7.114;2023-07-31T06:48:30;100533.16;;;18.50;72.18
81387;BME280;70842;50.744;7.114;2023-07-31T06:50:57;100537.28;;;18.60;72.64
81387;BME280;70842;50.744;7.114;2023-07-31T06:53:23;100543.44;;;18.69;72.10
81387;BME280;70842;50.744;7.114;2023-07-31T06:55:50;100541.94;;;18.66;72.67
81387;BME280;70842;50.744;7.114;2023-07-31T06:58:18;100547.19;;;18.60;73.11
81387;BME280;70842;50.744;7.114;2023-07-31T07:00:44;100535.56;;;18.67;72.74
81387;BME280;70842;50.744;7.114;2023-07-31T07:03:11;100536.50;;;18.52;73.54
81387;BME280;70842;50.744;7.114;2023-07-31T07:05:37;100532.06;;;18.44;73.65
81387;BME280;70842;50.744;7.114;2023-07-31T07:08:04;100528.06;;;18.63;73.38
81387;BME280;70842;50.744;7.114;2023-07-31T07:10:30;100518.13;;;18.86;73.45
81387;BME280;70842;50.744;7.114;2023-07-31T07:12:57;100524.69;;;18.84;73.01
81387;BME280;70842;50.744;7.114;2023-07-31T07:15:23;100527.53;;;19.19;71.94
81387;BME280;70842;50.744;7.114;2023-07-31T07:17:50;100518.13;;;19.23;71.74
81387;BME280;70842;50.744;7.114;2023-07-31T07:20:16;100516.44;;;19.22;71.75
81387;BME280;70842;50.744;7.114;2023-07-31T07:22:43;100510.34;;;19.28;71.53
81387;BME280;70842;50.744;7.114;2023-07-31T07:25:09;100515.66;;;19.36;71.10
81387;BME280;70842;50.744;7.114;2023-07-31T07:27:36;100505.13;;;19.12;71.86
81387;BME280;70842;50.744;7.114;2023-07-31T07:30:02;100511.81;;;19.16;71.15
81387;BME280;70842;50.744;7.114;2023-07-31T07:32:29;100512.00;;;19.15;71.57
81387;BME280;70842;50.744;7.114;2023-07-31T07:34:56;100521.47;;;19.25;71.08
81387;BME280;70842;50.744;7.114;2023-07-31T07:37:22;100525.56;;;18.99;72.52
81387;BME280;70842;50.744;7.114;2023-07-31T07:39:49;100520.56;;;18.96;72.94
81387;BME280;70842;50.744;7.114;2023-07-31T07:42:15;100521.34;;;19.04;72.02
81387;BME280;70842;50.744;7.114;2023-07-31T07:44:42;100522.22;;;18.97;72.38
81387;BME280;70842;50.744;7.114;2023-07-31T07:47:08;100519.84;;;19.02;73.06
81387;BME280;70842;50.744;7.114;2023-07-31T07:49:35;100528.44;;;18.97;72.18
81387;BME280;70842;50.744;7.114;2023-07-31T07:52:02;100530.09;;;18.98;72.78
81387;BME280;70842;50.744;7.114;2023-07-31T07:54:29;100523.88;;;18.83;72.19
81387;BME280;70842;50.744;7.114;2023-07-31T07:56:56;100529.13;;;18.77;72.69
81387;BME280;70842;50.744;7.114;2023-07-31T07:59:22;100523.59;;;18.55;73.44
81387;BME280;70842;50.744;7.114;2023-07-31T08:01:49;100520.78;;;18.41;72.43
81387;BME280;70842;50.744;7.114;2023-07-31T08:04:15;100524.84;;;18.45;74.62
81387;BME280;70842;50.744;7.114;2023-07-31T08:06:42;100516.78;;;18.45;74.13
81387;BME280;70842;50.744;7.114;2023-07-31T08:09:08;100521.13;;;18.15;74.51
81387;BME280;70842;50.744;7.114;2023-07-31T08:11:35;100522.09;;;18.22;75.81
81387;BME280;70842;50.744;7.114;2023-07-31T08:14:01;100527.38;;;18.38;74.48
81387;BME280;70842;50.744;7.114;2023-07-31T08:16:28;100521.56;;;18.27;75.22
81387;BME280;70842;50.744;7.114;2023-07-31T08:18:54;100530.06;;;18.38;75.50
81387;BME280;70842;50.744;7.114;2023-07-31T08:21:21;100509.31;;;18.24;76.15
81387;BME280;70842;50.744;7.114;2023-07-31T08:23:48;100519.47;;;18.14;75.10
81387;BME280;70842;50.744;7.114;2023-07-31T08:26:18;100518.44;;;18.46;75.46
81387;BME280;70842;50.744;7.114;2023-07-31T08:28:45;100515.59;;;18.39;76.21
81387;BME280;70842;50.744;7.114;2023-07-31T08:31:12;100511.50;;;17.98;75.47
81387;BME280;70842;50.744;7.114;2023-07-31T08:33:39;100515.94;;;18.14;75.69
81387;BME280;70842;50.744;7.114;2023-07-31T08:36:06;100503.50;;;18.21;76.74
81387;BME280;70842;50.744;7.114;2023-07-31T08:38:33;100496.75;;;18.25;75.95
81387;BME280;70842;50.744;7.114;2023-07-31T08:40:59;100496.16;;;18.68;74.96
81387;BME280;70842;50.744;7.114;2023-07-31T08:43:26;100491.34;;;18.78;74.50
81387;BME280;70842;50.744;7.114;2023-07-31T08:45:53;100479.22;;;18.37;74.69
81387;BME280;70842;50.744;7.114;2023-07-31T08:48:21;100480.72;;;18.39;75.05
81387;BME280;70842;50.744;7.114;2023-07-31T08:50:48;100477.50;;;18.89;74.37
81387;BME280;70842;50.744;7.114;2023-07-31T08:53:15;100471.53;;;18.79;74.27
81387;BME280;70842;50.744;7.114;2023-07-31T08:55:44;100475.75;;;18.96;74.10
81387;BME280;70842;50.744;7.114;2023-07-31T08:58:12;100472.88;;;18.83;74.44
81387;BME280;70842;50.744;7.114;2023-07-31T09:00:40;100478.94;;;18.77;74.07
81387;BME280;70842;50.744;7.114;2023-07-31T09:03:17;100475.13;;;18.72;75.78
81387;BME280;70842;50.744;7.114;2023-07-31T09:05:46;100478.75;;;18.64;75.06
81387;BME280;70842;50.744;7.114;2023-07-31T09:08:14;100480.69;;;18.70;75.07
81387;BME280;70842;50.744;7.114;2023-07-31T09:10:45;100483.00;;;18.73;75.17
81387;BME280;70842;50.744;7.114;2023-07-31T09:13:13;100488.00;;;19.28;73.71
81387;BME280;70842;50.744;7.114;2023-07-31T09:15:41;100482.84;;;19.41;73.08
81387;BME280;70842;50.744;7.114;2023-07-31T09:18:08;100475.84;;;19.17;74.53
81387;BME280;70842;50.744;7.114;2023-07-31T09:20:35;100481.50;;;19.08;74.50
81387;BME280;70842;50.744;7.114;2023-07-31T09:23:10;100480.91;;;18.83;75.39
81387;BME280;70842;50.744;7.114;2023-07-31T09:25:38;100487.03;;;18.92;76.44
81387;BME280;70842;50.744;7.114;2023-07-31T09:28:07;100486.84;;;18.79;76.95
81387;BME280;70842;50.744;7.114;2023-07-31T09:30:51;100491.94;;;18.88;76.25
81387;BME280;70842;50.744;7.114;2023-07-31T09:33:18;100486.28;;;19.35;74.98
81387;BME280;70842;50.744;7.114;2023-07-31T09:35:46;100473.38;;;19.60;74.02
81387;BME280;70842;50.744;7.114;2023-07-31T09:38:14;100471.34;;;19.62;74.31
81387;BME280;70842;50.744;7.114;2023-07-31T09:40:43;100467.28;;;19.66;73.72
81387;BME280;70842;50.744;7.114;2023-07-31T09:43:12;100447.97;;;19.77;73.43
81387;BME280;70842;50.744;7.114;2023-07-31T09:45:43;100459.34;;;19.79;73.20
81387;BME280;70842;50.744;7.114;2023-07-31T09:48:13;100458.00;;;19.54;74.11
81387;BME280;70842;50.744;7.114;2023-07-31T09:50:44;100452.06;;;19.14;74.62
81387;BME280;70842;50.744;7.114;2023-07-31T09:53:10;100450.19;;;19.00;76.10
81387;BME280;70842;50.744;7.114;2023-07-31T09:55:37;100443.72;;;19.09;75.27
81387;BME280;70842;50.744;7.114;2023-07-31T09:58:06;100446.31;;;19.03;75.84
81387;BME280;70842;50.744;7.114;2023-07-31T10:00:33;100439.00;;;19.11;74.05
81387;BME280;70842;50.744;7.114;2023-07-31T10:03:02;100439.53;;;19.21;73.89
81387;BME280;70842;50.744;7.114;2023-07-31T10:05:34;100428.56;;;19.45;70.88
81387;BME280;70842;50.744;7.114;2023-07-31T10:08:00;100431.03;;;19.32;72.14
81387;BME280;70842;50.744;7.114;2023-07-31T10:10:27;100431.75;;;19.85;71.60
81387;BME280;70842;50.744;7.114;2023-07-31T10:12:56;100430.00;;;19.98;72.70
81387;BME280;70842;50.744;7.114;2023-07-31T10:15:23;100430.06;;;19.84;70.81
81387;BME280;70842;50.744;7.114;2023-07-31T10:17:50;100426.66;;;20.32;70.18
81387;BME280;70842;50.744;7.114;2023-07-31T10:20:17;100419.38;;;20.26;69.49
81387;BME280;70842;50.744;7.114;2023-07-31T10:22:44;100424.47;;;20.21;68.40
81387;BME280;70842;50.744;7.114;2023-07-31T10:25:15;100427.63;;;20.25;66.39
81387;BME280;70842;50.744;7.114;2023-07-31T10:27:42;100418.78;;;20.31;64.38
81387;BME280;70842;50.744;7.114;2023-07-31T10:30:12;100421.53;;;20.86;63.49
81387;BME280;70842;50.744;7.114;2023-07-31T10:32:45;100404.38;;;20.93;61.92
81387;BME280;70842;50.744;7.114;2023-07-31T10:35:12;100405.00;;;20.95;61.33
81387;BME280;70842;50.744;7.114;2023-07-31T10:37:40;100407.72;;;21.30;60.51
81387;BME280;70842;50.744;7.114;2023-07-31T10:40:17;100404.81;;;21.25;59.64
81387;BME280;70842;50.744;7.114;2023-07-31T10:42:50;100401.78;;;21.41;59.43
81387;BME280;70842;50.744;7.114;2023-07-31T10:45:38;100400.72;;;21.35;57.95
81387;BME280;70842;50.744;7.114;2023-07-31T10:48:06;100395.13;;;21.37;58.56
81387;BME280;70842;50.744;7.114;2023-07-31T10:50:38;100393.50;;;21.49;57.69
81387;BME280;70842;50.744;7.114;2023-07-31T10:53:04;100398.47;;;21.45;57.71
81387;BME280;70842;50.744;7.114;2023-07-31T10:55:39;100401.59;;;21.49;57.04
81387;BME280;70842;50.744;7.114;2023-07-31T10:58:11;100400.19;;;21.59;57.81
81387;BME280;70842;50.744;7.114;2023-07-31T11:00:39;100404.94;;;21.51;58.17
81387;BME280;70842;50.744;7.114;2023-07-31T11:03:16;100392.69;;;21.48;58.51
81387;BME280;70842;50.744;7.114;2023-07-31T11:08:26;100392.44;;;21.37;57.54
81387;BME280;70842;50.744;7.114;2023-07-31T11:13:33;100396.81;;;21.44;57.74
81387;BME280;70842;50.744;7.114;2023-07-31T11:16:00;100410.44;;;21.30;57.49
81387;BME280;70842;50.744;7.114;2023-07-31T11:18:27;100404.72;;;21.46;57.52
81387;BME280;70842;50.744;7.114;2023-07-31T11:20:54;100408.41;;;21.38;57.23
81387;BME280;70842;50.744;7.114;2023-07-31T11:23:21;100407.91;;;21.22;58.18
81387;BME280;70842;50.744;7.114;2023-07-31T11:25:49;100407.22;;;21.47;57.15
81387;BME280;70842;50.744;7.114;2023-07-31T11:28:17;100407.69;;;21.23;57.61
81387;BME280;70842;50.744;7.114;2023-07-31T11:30:44;100415.63;;;21.31;57.53
81387;BME280;70842;50.744;7.114;2023-07-31T11:33:13;100425.16;;;21.34;58.11
81387;BME280;70842;50.744;7.114;2023-07-31T11:35:48;100429.34;;;20.81;61.55
81387;BME280;70842;50.744;7.114;2023-07-31T11:38:22;100428.53;;;20.32;65.88
81387;BME280;70842;50.744;7.114;2023-07-31T11:40:50;100444.22;;;20.28;67.50
81387;BME280;70842;50.744;7.114;2023-07-31T11:43:17;100430.13;;;20.26;68.10
81387;BME280;70842;50.744;7.114;2023-07-31T11:45:48;100415.66;;;20.27;68.03
81387;BME280;70842;50.744;7.114;2023-07-31T11:48:19;100408.59;;;20.26;67.40
81387;BME280;70842;50.744;7.114;2023-07-31T11:50:46;100398.31;;;20.57;66.11
81387;BME280;70842;50.744;7.114;2023-07-31T11:53:13;100397.63;;;20.49;67.28
81387;BME280;70842;50.744;7.114;2023-07-31T11:55:40;100386.00;;;20.69;66.41
81387;BME280;70842;50.744;7.114;2023-07-31T11:58:06;100378.53;;;20.44;66.49
81387;BME280;70842;50.744;7.114;2023-07-31T12:00:33;100375.66;;;20.45;65.07
81387;BME280;70842;50.744;7.114;2023-07-31T12:02:59;100380.41;;;20.71;65.09
81387;BME280;70842;50.744;7.114;2023-07-31T12:05:26;100379.13;;;21.29;64.42
81387;BME280;70842;50.744;7.114;2023-07-31T12:07:54;100368.22;;;21.50;62.75
81387;BME280;70842;50.744;7.114;2023-07-31T12:10:31;100372.03;;;21.75;61.82
81387;BME280;70842;50.744;7.114;2023-07-31T12:13:04;100369.66;;;22.19;60.29
81387;BME280;70842;50.744;7.114;2023-07-31T12:15:41;100363.22;;;22.14;58.69
81387;BME280;70842;50.744;7.114;2023-07-31T12:18:12;100364.50;;;22.31;57.49
81387;BME280;70842;50.744;7.114;2023-07-31T12:20:47;100361.75;;;22.05;58.18
81387;BME280;70842;50.744;7.114;2023-07-31T12:25:41;100362.38;;;22.07;58.13
81387;BME280;70842;50.744;7.114;2023-07-31T12:28:07;100358.63;;;22.14;57.23
81387;BME280;70842;50.744;7.114;2023-07-31T12:30:39;100375.88;;;22.39;57.06
81387;BME280;70842;50.744;7.114;2023-07-31T12:33:13;100365.53;;;22.49;56.82
81387;BME280;70842;50.744;7.114;2023-07-31T12:35:45;100366.97;;;22.65;56.72
81387;BME280;70842;50.744;7.114;2023-07-31T12:38:13;100364.88;;;22.21;56.50
81387;BME280;70842;50.744;7.114;2023-07-31T12:40:41;100359.91;;;22.25;56.63
81387;BME280;70842;50.744;7.114;2023-07-31T12:43:08;100362.78;;;22.04;56.99
81387;BME280;70842;50.744;7.114;2023-07-31T12:45:35;100355.75;;;22.09;57.12
81387;BME280;70842;50.744;7.114;2023-07-31T12:48:01;100359.44;;;21.82;58.27
81387;BME280;70842;50.744;7.114;2023-07-31T12:50:28;100358.66;;;22.27;57.22
81387;BME280;70842;50.744;7.114;2023-07-31T12:52:55;100361.72;;;21.85;57.87
81387;BME280;70842;50.744;7.114;2023-07-31T12:55:22;100358.81;;;21.87;58.52
81387;BME280;70842;50.744;7.114;2023-07-31T12:57:49;100362.16;;;21.82;58.58
81387;BME280;70842;50.744;7.114;2023-07-31T13:00:16;100358.41;;;21.83;58.33